createdAt,value
2018-05-15T00:00:50.151Z,6.60
2018-05-15T00:03:19.645Z,6.33
2018-05-15T00:05:49.358Z,5.77
2018-05-15T00:08:17.923Z,6.57
2018-05-15T00:10:46.138Z,6.03
2018-05-15T00:13:45.041Z,6.30
2018-05-15T00:16:13.348Z,6.13
2018-05-15T00:18:45.235Z,5.90
2018-05-15T00:21:13.450Z,5.73
2018-05-15T00:23:42.407Z,6.53
2018-05-15T00:26:10.586Z,5.80
2018-05-15T00:28:46.125Z,5.90
2018-05-15T00:31:14.311Z,5.97
2018-05-15T00:33:45.551Z,5.80
2018-05-15T00:36:13.774Z,6.10
2018-05-15T00:38:41.963Z,6.13
2018-05-15T00:41:10.161Z,5.63
2018-05-15T00:43:38.461Z,6.07
2018-05-15T00:46:07.405Z,6.10
2018-05-15T00:48:35.612Z,5.30
2018-05-15T00:51:03.822Z,6.03
2018-05-15T00:53:32.049Z,5.57
2018-05-15T00:56:00.230Z,6.43
2018-05-15T00:58:30.043Z,5.40
2018-05-15T01:00:58.432Z,5.83
2018-05-15T01:03:27.693Z,5.63
2018-05-15T01:05:55.996Z,5.03
2018-05-15T01:08:44.192Z,5.70
2018-05-15T01:11:12.476Z,5.40
2018-05-15T01:13:40.668Z,4.97
2018-05-15T01:16:08.868Z,5.43
2018-05-15T01:18:37.098Z,5.70
2018-05-15T01:21:05.317Z,4.87
2018-05-15T01:23:33.502Z,5.90
2018-05-15T01:26:02.569Z,4.87
2018-05-15T01:28:30.762Z,5.27
2018-05-15T01:30:59.710Z,6.00
2018-05-15T01:33:27.913Z,6.30
2018-05-15T01:35:56.857Z,5.37
2018-05-15T01:38:45.219Z,5.33
2018-05-15T01:41:13.409Z,5.10
2018-05-15T01:43:41.606Z,5.40
2018-05-15T01:46:09.892Z,5.07
2018-05-15T01:48:38.933Z,5.53
2018-05-15T01:51:07.658Z,5.90
2018-05-15T01:53:35.893Z,4.67
2018-05-15T01:56:04.107Z,5.23
2018-05-15T01:58:45.591Z,5.37
2018-05-15T02:01:13.766Z,5.43
2018-05-15T02:03:42.019Z,5.47
2018-05-15T02:09:10.619Z,5.00
2018-05-15T02:11:38.811Z,4.70
2018-05-15T02:14:07.754Z,4.40
2018-05-15T02:16:35.971Z,5.40
2018-05-15T02:19:05.690Z,5.23
2018-05-15T02:21:33.867Z,5.03
2018-05-15T02:24:02.138Z,5.30
2018-05-15T02:26:44.949Z,5.50
2018-05-15T02:29:13.171Z,5.23
2018-05-15T02:31:45.085Z,4.57
2018-05-15T02:34:43.718Z,4.57
2018-05-15T02:37:11.950Z,5.43
2018-05-15T02:39:46.893Z,5.00
2018-05-15T02:42:15.859Z,4.97
2018-05-15T02:44:44.150Z,5.13
2018-05-15T02:47:13.247Z,4.93
2018-05-15T02:49:41.431Z,4.57
2018-05-15T02:52:10.403Z,5.30
2018-05-15T02:54:46.776Z,5.07
2018-05-15T02:57:15.112Z,5.30
2018-05-15T02:59:43.390Z,5.30
2018-05-15T03:05:11.723Z,5.50
2018-05-15T03:07:46.484Z,5.40
2018-05-15T03:10:14.788Z,5.00
2018-05-15T03:12:42.967Z,5.20
2018-05-15T03:15:11.170Z,4.80
2018-05-15T03:17:39.387Z,4.83
2018-05-15T03:20:07.571Z,5.53
2018-05-15T03:22:35.792Z,5.23
2018-05-15T03:25:04.079Z,5.70
2018-05-15T03:27:32.263Z,5.07
2018-05-15T03:33:10.375Z,6.00
2018-05-15T03:35:44.927Z,5.43
2018-05-15T03:38:13.167Z,5.70
2018-05-15T03:40:41.343Z,5.23
2018-05-15T03:43:09.609Z,5.13
2018-05-15T03:45:38.586Z,5.03
2018-05-15T03:48:06.769Z,5.53
2018-05-15T03:50:35.011Z,5.50
2018-05-15T03:53:03.331Z,5.50
2018-05-15T03:55:31.524Z,5.07
2018-05-15T04:01:19.218Z,5.20
2018-05-15T04:04:05.225Z,5.63
2018-05-15T04:06:53.387Z,4.90
2018-05-15T04:09:22.170Z,5.83
2018-05-15T04:11:51.883Z,5.53
2018-05-15T04:14:20.090Z,5.63
2018-05-15T04:16:48.335Z,5.97
2018-05-15T04:19:16.618Z,5.13
2018-05-15T04:21:45.593Z,5.27
2018-05-15T04:24:15.281Z,5.07
2018-05-15T04:26:43.458Z,5.90
2018-05-15T04:29:11.759Z,5.53
2018-05-15T04:31:40.034Z,6.00
2018-05-15T04:34:08.297Z,4.93
2018-05-15T04:36:37.289Z,4.90
2018-05-15T04:42:07.195Z,5.50
2018-05-15T04:44:45.921Z,5.73
2018-05-15T04:47:14.144Z,5.70
2018-05-15T04:49:43.090Z,5.50
2018-05-15T04:52:11.356Z,5.70
2018-05-15T04:54:39.566Z,5.40
2018-05-15T04:57:07.838Z,5.83
2018-05-15T04:59:36.785Z,6.17
2018-05-15T05:02:05.240Z,5.23
2018-05-15T05:04:33.392Z,6.00
2018-05-15T05:10:02.503Z,6.73
2018-05-15T05:12:44.651Z,5.10
2018-05-15T05:15:12.866Z,5.87
2018-05-15T05:17:41.151Z,6.97
2018-05-15T05:20:09.437Z,6.50
2018-05-15T05:22:38.432Z,8.20
2018-05-15T05:25:07.409Z,8.17
2018-05-15T05:27:36.415Z,7.07
2018-05-15T05:30:05.509Z,6.67
2018-05-15T05:32:34.458Z,8.17
2018-05-15T05:38:03.914Z,6.80
2018-05-15T05:40:32.230Z,6.97
2018-05-15T05:43:00.463Z,7.47
2018-05-15T05:45:28.942Z,7.77
2018-05-15T05:47:57.229Z,8.00
2018-05-15T05:50:26.210Z,6.70
2018-05-15T05:52:54.490Z,7.80
2018-05-15T05:55:45.897Z,11.23
2018-05-15T05:58:14.895Z,10.07
2018-05-15T06:00:43.176Z,12.60
2018-05-15T06:03:11.455Z,7.80
2018-05-15T06:05:40.447Z,10.80
2018-05-15T06:08:08.804Z,9.97
2018-05-15T06:10:37.278Z,7.57
2018-05-15T06:13:05.566Z,9.00
2018-05-15T06:15:35.257Z,9.17
2018-05-15T06:21:05.046Z,8.23
2018-05-15T06:23:47.306Z,9.73
2018-05-15T06:26:15.558Z,9.23
2018-05-15T06:28:43.770Z,10.20
2018-05-15T06:31:11.958Z,10.33
2018-05-15T06:33:41.030Z,10.13
2018-05-15T06:36:09.269Z,10.00
2018-05-15T06:38:37.931Z,8.40
2018-05-15T06:41:06.107Z,8.80
2018-05-15T06:43:34.347Z,8.47
2018-05-15T06:46:03.285Z,7.87
2018-05-15T06:48:31.493Z,8.47
2018-05-15T06:50:59.683Z,8.13
2018-05-15T06:53:28.020Z,10.90
2018-05-15T06:55:56.229Z,10.30
2018-05-15T06:58:24.413Z,8.83
2018-05-15T07:00:53.494Z,9.80
2018-05-15T07:03:22.449Z,8.43
2018-05-15T07:05:50.766Z,7.47
2018-05-15T07:08:19.042Z,6.63
2018-05-15T07:10:47.226Z,7.47
2018-05-15T07:13:16.216Z,8.27
2018-05-15T07:15:44.409Z,8.80
2018-05-15T07:18:13.482Z,7.73
2018-05-15T07:20:45.428Z,8.87
2018-05-15T07:23:14.432Z,9.27
2018-05-15T07:25:45.986Z,8.60
2018-05-15T07:28:44.729Z,6.30
2018-05-15T07:31:12.927Z,9.33
2018-05-15T07:33:47.537Z,6.90
2018-05-15T07:36:43.426Z,8.90
2018-05-15T07:39:11.673Z,8.20
2018-05-15T07:41:46.217Z,8.30
2018-05-15T07:44:15.234Z,8.93
2018-05-15T07:46:45.189Z,7.93
2018-05-15T07:49:13.410Z,8.60
2018-05-15T07:51:47.752Z,9.20
2018-05-15T07:54:43.780Z,7.73
2018-05-15T07:57:12.085Z,10.00
2018-05-15T07:59:40.366Z,8.33
2018-05-15T08:23:44.350Z,6.70
2018-05-15T08:44:44.000Z,6.17
2018-05-15T08:50:43.569Z,5.63
2018-05-15T08:53:11.759Z,6.17
2018-05-15T08:55:46.783Z,6.70
2018-05-15T09:01:44.380Z,6.83
2018-05-15T09:07:44.035Z,6.33
2018-05-15T09:13:02.257Z,5.60
2018-05-15T09:15:45.208Z,5.50
2018-05-15T09:18:43.764Z,5.87
2018-05-15T09:33:44.035Z,4.80
2018-05-15T09:36:20.011Z,5.40
2018-05-15T09:38:48.969Z,5.33
2018-05-15T09:41:44.341Z,4.23
2018-05-15T09:53:44.583Z,4.90
2018-05-15T10:08:44.065Z,4.90
2018-05-15T10:14:02.247Z,6.40
2018-05-15T10:16:45.399Z,4.87
2018-05-15T10:19:43.711Z,5.73
2018-05-15T10:37:07.931Z,5.33
2018-05-15T10:39:46.433Z,5.53
2018-05-15T10:42:44.432Z,5.20
2018-05-15T11:07:49.913Z,4.60
2018-05-15T11:10:44.515Z,3.83
2018-05-15T11:27:45.953Z,4.60
2018-05-15T11:30:44.525Z,3.93
2018-05-15T11:33:19.653Z,5.17
2018-05-15T11:35:48.103Z,3.93
2018-05-15T11:38:44.132Z,4.03
2018-05-15T11:53:20.972Z,4.67
2018-05-15T11:55:49.688Z,3.93
2018-05-15T11:58:44.262Z,4.73
2018-05-15T12:13:19.589Z,4.10
2018-05-15T12:15:47.765Z,5.13
2018-05-15T12:18:44.275Z,5.50
2018-05-15T12:35:43.743Z,4.60
2018-05-15T12:38:11.896Z,4.83
2018-05-15T12:40:46.669Z,4.80
2018-05-15T12:59:46.040Z,5.20
2018-05-15T13:02:44.319Z,4.90
2018-05-15T13:11:44.240Z,4.83
2018-05-15T13:20:44.003Z,4.33
2018-05-15T13:23:18.925Z,5.00
2018-05-15T13:28:47.670Z,4.97
2018-05-15T13:31:44.337Z,5.57
2018-05-15T13:37:44.393Z,5.53
2018-05-15T13:49:44.687Z,7.00
2018-05-15T13:58:44.675Z,6.30
2018-05-15T14:07:44.391Z,6.10
2018-05-15T14:13:44.327Z,7.73
2018-05-15T14:19:44.144Z,8.13
2018-05-15T14:25:44.108Z,7.00
2018-05-15T14:37:43.992Z,7.80
2018-05-15T14:43:23.467Z,6.67
2018-05-15T14:45:51.670Z,9.30
2018-05-15T14:51:46.832Z,8.03
2018-05-15T14:59:44.591Z,8.40
2018-05-15T15:05:44.199Z,8.40
2018-05-15T15:14:39.905Z,7.23
2018-05-15T15:23:59.004Z,9.10
2018-05-15T15:26:44.858Z,7.93
2018-05-15T15:32:43.910Z,7.70
2018-05-15T15:35:13.063Z,8.13
2018-05-15T15:40:49.357Z,7.67
2018-05-15T15:43:44.624Z,7.83
2018-05-15T15:48:56.703Z,5.57
2018-05-15T15:51:46.062Z,8.30
2018-05-15T15:54:44.507Z,7.70
2018-05-15T16:00:43.728Z,8.23
2018-05-15T16:03:11.943Z,7.40
2018-05-15T16:08:38.704Z,6.90
2018-05-15T16:11:07.035Z,6.73
2018-05-15T16:13:47.846Z,7.90
2018-05-15T16:16:44.110Z,6.83
2018-05-15T16:43:21.113Z,6.13
2018-05-15T17:03:58.228Z,6.87
2018-05-15T17:46:54.523Z,8.30
2018-05-15T17:49:24.310Z,7.33
2018-05-15T17:51:52.552Z,6.30
2018-05-15T17:54:20.748Z,7.67
2018-05-15T17:56:49.496Z,6.20
2018-05-15T17:59:17.760Z,7.23
2018-05-15T18:13:45.501Z,9.97
2018-05-15T18:16:43.970Z,6.13
2018-05-15T18:22:43.952Z,8.87
2018-05-15T18:40:44.831Z,10.33
2018-05-15T18:51:56.507Z,6.20
2018-05-15T18:54:44.693Z,5.70
2018-05-15T18:57:12.924Z,9.70
2018-05-15T18:59:41.171Z,10.50
2018-05-15T19:02:09.444Z,6.83
2018-05-15T19:04:37.728Z,7.57
2018-05-15T19:07:06.692Z,14.13
2018-05-15T19:09:34.894Z,12.10
2018-05-15T19:12:03.896Z,6.43
2018-05-15T19:14:46.273Z,8.03
2018-05-15T19:17:14.531Z,8.63
2018-05-15T19:19:42.750Z,8.20
2018-05-15T19:22:11.736Z,7.47
2018-05-15T19:24:40.757Z,6.50
2018-05-15T19:27:08.942Z,7.63
2018-05-15T19:29:37.143Z,6.53
2018-05-15T19:32:10.891Z,6.93
2018-05-15T19:34:45.432Z,7.33
2018-05-15T19:37:14.666Z,7.90
2018-05-15T19:39:45.977Z,6.60
2018-05-15T19:42:14.297Z,7.37
2018-05-15T19:44:42.508Z,6.07
2018-05-15T19:47:11.500Z,7.07
2018-05-15T19:49:40.450Z,6.60
2018-05-15T19:52:09.038Z,7.50
2018-05-15T19:54:37.222Z,6.63
2018-05-15T20:12:59.696Z,8.07
2018-05-15T20:15:28.647Z,6.30
2018-05-15T20:17:56.921Z,6.73
2018-05-15T20:20:25.119Z,6.30
2018-05-15T20:22:54.106Z,6.80
2018-05-15T20:25:22.294Z,14.07
2018-05-15T20:27:51.281Z,6.10
2018-05-15T20:30:20.384Z,7.07
2018-05-15T20:32:50.058Z,7.10
2018-05-15T20:35:44.541Z,15.80
2018-05-15T20:38:12.733Z,7.03
2018-05-15T20:40:40.916Z,6.77
2018-05-15T20:43:10.089Z,6.50
2018-05-15T20:45:38.394Z,6.87
2018-05-15T20:48:07.474Z,7.40
2018-05-15T20:50:35.759Z,8.53
2018-05-15T20:53:03.942Z,7.13
2018-05-15T20:55:45.719Z,6.63
2018-05-15T21:01:14.113Z,6.03
2018-05-15T21:03:46.793Z,7.03
2018-05-15T21:06:45.558Z,6.67
2018-05-15T21:09:13.738Z,7.50
2018-05-15T21:11:41.916Z,9.20
2018-05-15T21:14:10.135Z,6.57
2018-05-15T21:16:39.077Z,10.07
2018-05-15T21:19:07.287Z,7.80
2018-05-15T21:24:10.089Z,7.60
2018-05-15T21:26:39.058Z,7.30
2018-05-15T21:29:07.269Z,6.70
2018-05-15T21:31:46.892Z,12.13
2018-05-15T21:34:15.875Z,8.23
2018-05-15T21:36:44.147Z,7.77
2018-05-15T21:39:13.164Z,7.37
2018-05-15T21:41:42.125Z,7.93
2018-05-15T21:44:10.312Z,7.70
2018-05-15T21:46:46.193Z,6.73
2018-05-15T21:49:45.121Z,8.43
2018-05-15T21:52:14.072Z,9.67
2018-05-15T21:54:42.410Z,8.90
2018-05-15T21:57:10.638Z,16.30
2018-05-15T21:59:46.687Z,7.37
2018-05-15T22:02:15.505Z,7.60
2018-05-15T22:04:43.718Z,9.70
2018-05-15T22:07:11.901Z,11.20
2018-05-15T22:09:40.885Z,12.97
2018-05-15T22:12:27.042Z,9.43
2018-05-15T22:15:13.106Z,10.10
2018-05-15T22:17:59.813Z,12.57
2018-05-15T22:20:45.960Z,8.13
2018-05-15T22:23:13.478Z,17.37
2018-05-15T22:25:41.659Z,9.70
2018-05-15T22:34:11.246Z,12.70
2018-05-15T22:36:39.433Z,10.37
2018-05-15T22:39:08.421Z,13.73
2018-05-15T22:41:36.766Z,18.50
2018-05-15T22:44:05.687Z,10.87
2018-05-15T22:46:33.957Z,7.57
2018-05-15T22:49:02.942Z,11.20
2018-05-15T22:51:31.131Z,13.53
2018-05-15T22:54:00.216Z,12.70
2018-05-15T22:56:46.053Z,11.50
2018-05-15T22:59:44.589Z,7.87
2018-05-15T23:02:13.606Z,8.20
2018-05-15T23:04:42.546Z,7.83
2018-05-15T23:07:10.737Z,7.70
2018-05-15T23:09:39.023Z,7.20
2018-05-15T23:15:08.187Z,8.00
2018-05-15T23:17:36.458Z,7.50
2018-05-15T23:20:04.686Z,7.87
2018-05-15T23:22:42.530Z,7.67
2018-05-15T23:25:10.758Z,8.40
2018-05-15T23:27:47.240Z,7.20
2018-05-15T23:30:15.490Z,7.53
2018-05-15T23:32:43.693Z,8.10
2018-05-15T23:35:12.681Z,8.20
2018-05-15T23:37:40.929Z,8.20
2018-05-15T23:40:09.113Z,10.23
2018-05-15T23:42:37.277Z,9.40
2018-05-15T23:45:05.576Z,8.50
2018-05-15T23:47:34.976Z,8.20
2018-05-15T23:50:03.243Z,8.50
2018-05-15T23:52:32.447Z,7.80
2018-05-15T23:58:00.646Z,8.10
